createdAt,value
2023-01-03T00:01:20.932Z,99280.03
2023-01-03T00:03:48.216Z,99277.09
2023-01-03T00:06:21.617Z,99271.38
2023-01-03T00:08:49.354Z,99259.44
2023-01-03T00:11:42.265Z,99270.25
2023-01-03T00:14:10.153Z,99268.97
2023-01-03T00:16:37.696Z,99268.00
2023-01-03T00:19:13.545Z,99262.75
2023-01-03T00:21:41.815Z,99251.38
2023-01-03T00:24:09.466Z,99250.25
2023-01-03T00:26:36.980Z,99251.88
2023-01-03T00:29:04.457Z,99226.38
2023-01-03T00:31:35.554Z,99241.34
2023-01-03T00:34:02.640Z,99251.88
2023-01-03T00:36:29.775Z,99250.78
2023-01-03T00:38:57.185Z,99255.22
2023-01-03T00:41:24.373Z,99248.81
2023-01-03T00:43:51.481Z,99240.09
2023-01-03T00:46:20.199Z,99234.63
2023-01-03T00:48:47.763Z,99237.66
2023-01-03T00:51:35.411Z,99230.31
2023-01-03T00:54:04.215Z,99226.28
2023-01-03T00:56:34.384Z,99216.03
2023-01-03T00:59:01.762Z,99218.94
2023-01-03T01:01:40.662Z,99211.53
2023-01-03T01:04:17.226Z,99207.09
2023-01-03T01:06:59.178Z,99218.47
2023-01-03T01:09:35.435Z,99204.44
2023-01-03T01:12:03.968Z,99205.13
2023-01-03T01:14:33.547Z,99200.00
2023-01-03T01:17:05.050Z,99191.81
2023-01-03T01:19:38.242Z,99184.09
2023-01-03T01:22:05.987Z,99162.31
2023-01-03T01:24:33.533Z,99164.34
2023-01-03T01:27:00.803Z,99151.63
2023-01-03T01:29:27.926Z,99152.97
2023-01-03T01:31:55.023Z,99157.25
2023-01-03T01:34:22.409Z,99147.97
2023-01-03T01:36:49.588Z,99138.09
2023-01-03T01:39:25.864Z,99127.78
2023-01-03T01:42:20.553Z,99118.56
2023-01-03T01:44:58.165Z,99117.06
2023-01-03T01:47:27.858Z,99114.59
2023-01-03T01:50:04.195Z,99109.16
2023-01-03T01:52:33.292Z,99100.25
2023-01-03T01:55:02.974Z,99094.16
2023-01-03T01:57:31.251Z,99097.31
2023-01-03T01:59:58.669Z,99089.94
2023-01-03T02:02:25.822Z,99085.03
2023-01-03T02:04:54.486Z,99072.78
2023-01-03T02:07:22.412Z,99073.00
2023-01-03T02:09:52.188Z,99073.16
2023-01-03T02:12:58.161Z,99065.59
2023-01-03T02:15:45.356Z,99054.53
2023-01-03T02:18:12.757Z,99048.53
2023-01-03T02:21:03.929Z,99050.16
2023-01-03T02:23:55.004Z,99055.63
2023-01-03T02:27:01.675Z,99060.91
2023-01-03T02:29:34.646Z,99063.00
2023-01-03T02:32:07.527Z,99053.44
2023-01-03T02:34:43.591Z,99052.34
2023-01-03T02:37:16.606Z,99041.31
2023-01-03T02:40:09.147Z,99033.91
2023-01-03T02:43:06.197Z,99026.81
2023-01-03T02:45:36.137Z,99019.50
2023-01-03T02:48:10.233Z,99015.16
2023-01-03T02:50:46.285Z,99003.47
2023-01-03T02:53:16.505Z,99000.38
2023-01-03T02:55:43.867Z,98987.31
2023-01-03T02:58:31.671Z,98982.50
2023-01-03T03:01:02.105Z,98980.50
2023-01-03T03:03:32.744Z,98972.41
2023-01-03T03:06:13.204Z,98970.69
2023-01-03T03:08:43.607Z,98955.53
2023-01-03T03:11:29.198Z,98961.28
2023-01-03T03:14:07.765Z,98960.81
2023-01-03T03:16:50.521Z,98945.28
2023-01-03T03:19:54.160Z,98948.91
2023-01-03T03:22:59.973Z,98943.94
2023-01-03T03:25:36.217Z,98934.38
2023-01-03T03:28:27.423Z,98923.81
2023-01-03T03:31:02.210Z,98918.22
2023-01-03T03:33:31.277Z,98902.56
2023-01-03T03:36:05.902Z,98908.72
2023-01-03T03:38:36.596Z,98901.16
2023-01-03T03:41:42.036Z,98891.28
2023-01-03T03:44:46.545Z,98878.78
2023-01-03T03:47:39.631Z,98870.22
2023-01-03T03:50:34.971Z,98864.66
2023-01-03T03:53:06.130Z,98857.38
2023-01-03T03:55:42.687Z,98842.75
2023-01-03T03:58:22.334Z,98846.56
2023-01-03T04:00:51.654Z,98831.88
2023-01-03T04:03:20.372Z,98826.13
2023-01-03T04:05:51.050Z,98814.25
2023-01-03T04:08:18.099Z,98825.81
2023-01-03T04:10:45.593Z,98798.75
2023-01-03T04:13:12.641Z,98802.06
2023-01-03T04:15:39.729Z,98784.06
2023-01-03T04:18:07.079Z,98794.50
2023-01-03T04:20:34.232Z,98777.84
2023-01-03T04:23:01.305Z,98761.16
2023-01-03T04:25:28.306Z,98768.94
2023-01-03T04:27:55.474Z,98761.53
2023-01-03T04:30:22.893Z,98751.31
2023-01-03T04:32:49.852Z,98755.25
2023-01-03T04:35:16.996Z,98746.66
2023-01-03T04:37:43.970Z,98731.81
2023-01-03T04:40:11.511Z,98721.13
2023-01-03T04:42:58.313Z,98718.81
2023-01-03T04:45:25.375Z,98715.31
2023-01-03T04:47:53.797Z,98693.88
2023-01-03T04:50:20.943Z,98688.28
2023-01-03T04:52:48.123Z,98682.16
2023-01-03T04:55:15.221Z,98675.25
2023-01-03T04:57:42.233Z,98655.94
2023-01-03T05:00:09.686Z,98665.34
2023-01-03T05:02:36.889Z,98655.44
2023-01-03T05:05:04.249Z,98647.53
2023-01-03T05:07:31.243Z,98639.94
2023-01-03T05:09:58.252Z,98644.41
2023-01-03T05:12:27.041Z,98652.31
2023-01-03T05:14:54.066Z,98645.69
2023-01-03T05:17:21.425Z,98643.25
2023-01-03T05:20:07.243Z,98623.59
2023-01-03T05:22:52.924Z,98627.06
2023-01-03T05:25:39.042Z,98617.00
2023-01-03T05:28:10.991Z,98597.88
2023-01-03T05:30:42.573Z,98582.22
2023-01-03T05:33:09.644Z,98578.75
2023-01-03T05:35:39.176Z,98576.25
2023-01-03T05:38:06.412Z,98586.97
2023-01-03T05:40:39.237Z,98577.41
2023-01-03T05:43:08.757Z,98579.25
2023-01-03T05:45:39.405Z,98589.13
2023-01-03T05:48:07.327Z,98575.09
2023-01-03T05:50:34.775Z,98572.31
2023-01-03T05:53:01.884Z,98569.81
2023-01-03T05:55:28.931Z,98548.56
2023-01-03T05:57:56.099Z,98564.88
2023-01-03T06:00:24.182Z,98549.03
2023-01-03T06:02:52.502Z,98540.78
2023-01-03T06:05:19.799Z,98521.66
2023-01-03T06:07:46.978Z,98508.44
2023-01-03T06:10:15.240Z,98511.44
2023-01-03T06:13:08.133Z,98508.94
2023-01-03T06:15:36.230Z,98480.91
2023-01-03T06:18:05.605Z,98508.59
2023-01-03T06:20:35.569Z,98487.34
2023-01-03T06:23:02.626Z,98484.03
2023-01-03T06:25:36.176Z,98471.50
2023-01-03T06:28:06.750Z,98485.63
2023-01-03T06:30:34.589Z,98452.13
2023-01-03T06:33:02.345Z,98430.97
2023-01-03T06:35:32.532Z,98423.38
2023-01-03T06:38:00.666Z,98447.16
2023-01-03T06:40:38.112Z,98438.47
2023-01-03T06:43:14.672Z,98437.09
2023-01-03T06:46:03.724Z,98413.72
2023-01-03T06:48:59.882Z,98432.88
2023-01-03T06:51:49.288Z,98425.72
2023-01-03T06:54:23.905Z,98435.28
2023-01-03T06:56:52.211Z,98400.69
2023-01-03T06:59:20.119Z,98418.16
2023-01-03T07:01:49.392Z,98412.81
2023-01-03T07:04:16.937Z,98402.31
2023-01-03T07:06:44.578Z,98381.16
2023-01-03T07:09:12.979Z,98391.50
2023-01-03T07:11:40.530Z,98392.81
2023-01-03T07:14:09.001Z,98372.19
2023-01-03T07:16:38.766Z,98386.81
2023-01-03T07:19:07.035Z,98383.88
2023-01-03T07:21:35.482Z,98366.03
2023-01-03T07:24:05.137Z,98370.09
2023-01-03T07:26:34.616Z,98368.47
2023-01-03T07:29:04.324Z,98363.63
2023-01-03T07:31:33.015Z,98356.00
2023-01-03T07:34:01.250Z,98352.00
2023-01-03T07:36:31.438Z,98351.81
2023-01-03T07:38:58.947Z,98353.56
2023-01-03T07:41:51.028Z,98344.03
2023-01-03T07:44:19.570Z,98345.66
2023-01-03T07:46:47.016Z,98339.19
2023-01-03T07:49:14.965Z,98333.53
2023-01-03T07:51:42.540Z,98333.09
2023-01-03T07:54:17.231Z,98331.09
2023-01-03T07:56:53.733Z,98310.19
2023-01-03T07:59:21.969Z,98312.88
2023-01-03T08:01:49.118Z,98309.22
2023-01-03T08:04:17.301Z,98297.72
2023-01-03T08:06:45.717Z,98304.94
2023-01-03T08:09:31.749Z,98274.06
2023-01-03T08:12:17.439Z,98280.63
2023-01-03T08:14:44.724Z,98270.59
2023-01-03T08:17:14.911Z,98280.72
2023-01-03T08:19:45.755Z,98262.59
2023-01-03T08:22:15.463Z,98239.53
2023-01-03T08:24:43.665Z,98225.50
2023-01-03T08:27:10.678Z,98238.09
2023-01-03T08:29:37.984Z,98233.78
2023-01-03T08:32:06.096Z,98226.13
2023-01-03T08:34:36.532Z,98218.94
2023-01-03T08:37:11.124Z,98206.25
2023-01-03T08:39:49.076Z,98200.81
2023-01-03T08:42:21.204Z,98200.97
2023-01-03T08:44:49.809Z,98191.97
2023-01-03T08:47:20.398Z,98198.97
2023-01-03T08:49:47.414Z,98195.84
2023-01-03T08:52:14.639Z,98195.31
2023-01-03T08:54:41.682Z,98170.44
2023-01-03T08:57:08.597Z,98164.75
2023-01-03T08:59:35.756Z,98171.41
2023-01-03T09:02:03.153Z,98171.66
2023-01-03T09:04:30.297Z,98157.63
2023-01-03T09:06:57.598Z,98149.59
2023-01-03T09:09:24.639Z,98161.38
2023-01-03T09:11:51.637Z,98150.50
2023-01-03T09:14:19.534Z,98142.81
2023-01-03T09:16:49.318Z,98133.66
2023-01-03T09:19:17.073Z,98137.38
2023-01-03T09:21:44.159Z,98131.34
2023-01-03T09:24:11.136Z,98111.03
2023-01-03T09:26:38.315Z,98121.09
2023-01-03T09:29:05.398Z,98110.53
2023-01-03T09:31:34.899Z,98114.06
2023-01-03T09:34:04.793Z,98106.38
2023-01-03T09:36:32.381Z,98107.56
2023-01-03T09:38:59.312Z,98091.06
2023-01-03T09:41:27.673Z,98095.72
2023-01-03T09:44:01.006Z,98081.44
2023-01-03T09:46:28.936Z,98077.75
2023-01-03T09:48:56.432Z,98077.97
2023-01-03T09:51:50.662Z,98078.84
2023-01-03T09:54:47.852Z,98055.78
2023-01-03T09:57:53.572Z,98090.69
2023-01-03T10:01:03.704Z,98061.88
2023-01-03T10:04:09.886Z,98060.38
2023-01-03T10:07:14.995Z,98037.97
2023-01-03T10:09:56.844Z,98034.56
2023-01-03T10:12:33.181Z,98034.41
2023-01-03T10:15:30.245Z,98021.81
2023-01-03T10:18:30.424Z,98029.25
2023-01-03T10:21:03.286Z,98001.34
2023-01-03T10:23:30.852Z,98001.59
2023-01-03T10:25:58.277Z,98012.81
2023-01-03T10:28:27.273Z,98024.00
2023-01-03T10:31:16.480Z,98010.19
2023-01-03T10:33:46.347Z,97983.22
2023-01-03T10:36:15.844Z,97989.19
2023-01-03T10:38:52.600Z,97988.84
2023-01-03T10:41:41.779Z,97979.91
2023-01-03T10:44:30.793Z,97987.44
2023-01-03T10:47:11.372Z,97990.13
2023-01-03T10:49:48.131Z,97974.84
2023-01-03T10:52:38.643Z,97973.25
2023-01-03T10:55:34.650Z,97967.72
2023-01-03T10:58:36.200Z,97962.66
2023-01-03T11:01:34.128Z,97954.13
2023-01-03T11:04:15.168Z,97954.97
2023-01-03T11:07:22.093Z,97950.91
2023-01-03T11:09:52.788Z,97942.78
2023-01-03T11:12:38.933Z,97934.69
2023-01-03T11:15:40.022Z,97930.19
2023-01-03T11:18:21.652Z,97940.38
2023-01-03T11:24:13.823Z,97935.53
2023-01-03T11:27:05.770Z,97930.84
2023-01-03T11:32:47.446Z,97930.03
2023-01-03T11:38:21.995Z,97927.59
2023-01-03T11:41:00.804Z,97923.72
2023-01-03T11:43:52.710Z,97921.66
2023-01-03T11:46:51.263Z,97914.72
2023-01-03T11:49:29.481Z,97910.03
2023-01-03T11:52:31.087Z,97918.19
2023-01-03T11:55:26.087Z,97908.63
2023-01-03T11:58:21.088Z,97892.06
2023-01-03T12:01:03.452Z,97901.66
2023-01-03T12:04:07.946Z,97899.66
2023-01-03T12:06:43.725Z,97882.50
2023-01-03T12:09:27.513Z,97889.44
2023-01-03T12:12:01.373Z,97889.88
2023-01-03T12:14:47.137Z,97875.59
2023-01-03T12:17:25.855Z,97882.75
2023-01-03T12:20:05.942Z,97886.63
2023-01-03T12:25:38.985Z,97878.69
2023-01-03T12:28:14.374Z,97878.47
2023-01-03T12:30:45.694Z,97879.91
2023-01-03T12:33:34.832Z,97876.84
2023-01-03T12:36:06.229Z,97869.31
2023-01-03T12:38:38.588Z,97860.94
2023-01-03T12:41:09.134Z,97867.69
2023-01-03T12:44:15.568Z,97856.47
2023-01-03T12:52:23.369Z,97876.06
2023-01-03T12:55:19.586Z,97882.59
2023-01-03T12:58:08.871Z,97889.94
2023-01-03T13:00:58.885Z,97881.97
2023-01-03T13:03:49.378Z,97892.78
2023-01-03T13:06:21.920Z,97887.50
2023-01-03T13:08:58.035Z,97882.97
2023-01-03T13:11:56.599Z,97874.81
2023-01-03T13:14:31.529Z,97872.34
2023-01-03T13:17:20.080Z,97886.63
2023-01-03T13:19:57.154Z,97885.78
2023-01-03T13:25:40.348Z,97894.94
2023-01-03T13:28:29.909Z,97900.25
2023-01-03T13:31:18.633Z,97900.81
2023-01-03T13:33:48.966Z,97901.25
2023-01-03T13:36:16.095Z,97897.34
2023-01-03T13:38:43.154Z,97899.38
2023-01-03T13:41:38.442Z,97894.50
2023-01-03T13:44:20.882Z,97891.41
2023-01-03T13:46:48.923Z,97883.03
2023-01-03T13:49:29.457Z,97889.13
2023-01-03T13:51:58.941Z,97894.44
2023-01-03T13:54:40.212Z,97892.16
2023-01-03T13:57:37.679Z,97893.38
2023-01-03T14:00:26.942Z,97886.84
2023-01-03T14:03:21.460Z,97881.97
2023-01-03T14:05:57.600Z,97882.75
2023-01-03T14:09:03.118Z,97878.41
2023-01-03T14:11:59.113Z,97879.84
2023-01-03T14:14:56.641Z,97874.91
2023-01-03T14:17:29.257Z,97879.41
2023-01-03T14:19:59.382Z,97867.97
2023-01-03T14:22:47.980Z,97884.09
2023-01-03T14:25:53.322Z,97880.56
2023-01-03T14:28:25.748Z,97879.38
2023-01-03T14:30:55.659Z,97877.72
2023-01-03T14:33:25.662Z,97874.44
2023-01-03T14:36:19.262Z,97866.03
2023-01-03T14:42:01.562Z,97873.56
2023-01-03T14:44:30.796Z,97875.22
2023-01-03T14:47:03.995Z,97866.00
2023-01-03T14:49:53.007Z,97859.72
2023-01-03T15:04:27.073Z,97869.09
2023-01-03T15:07:13.475Z,97881.34
2023-01-03T15:09:43.933Z,97864.69
2023-01-03T15:12:14.425Z,97864.25
2023-01-03T15:17:42.548Z,97876.66
2023-01-03T15:20:14.393Z,97874.00
2023-01-03T15:22:44.577Z,97880.72
2023-01-03T15:25:28.659Z,97866.25
2023-01-03T15:30:55.954Z,97878.88
2023-01-03T15:33:33.824Z,97876.81
2023-01-03T15:36:29.008Z,97876.63
2023-01-03T15:39:03.001Z,97860.94
2023-01-03T15:42:20.065Z,97883.78
2023-01-03T16:36:50.775Z,97807.09
2023-01-03T16:39:25.565Z,97837.03
2023-01-03T16:42:13.809Z,97825.81
2023-01-03T16:44:47.936Z,97833.97
2023-01-03T16:47:39.202Z,97833.97
2023-01-03T16:50:13.777Z,97808.69
2023-01-03T16:52:44.781Z,97820.28
2023-01-03T17:06:37.528Z,97807.44
2023-01-03T17:09:11.990Z,97805.38
2023-01-03T17:11:47.495Z,97803.09
2023-01-03T17:14:40.397Z,97810.00
2023-01-03T17:17:17.005Z,97793.88
2023-01-03T18:00:43.575Z,97750.00
2023-01-03T18:17:33.635Z,97741.31
2023-01-03T18:20:03.647Z,97740.13
2023-01-03T18:25:31.176Z,97740.13
2023-01-03T18:28:03.518Z,97733.63
2023-01-03T18:30:42.963Z,97734.41
2023-01-03T18:33:10.646Z,97717.47
2023-01-03T18:35:38.674Z,97738.47
2023-01-03T18:50:18.702Z,97727.13
2023-01-03T18:52:51.673Z,97704.84
2023-01-03T18:55:25.333Z,97722.00
2023-01-03T18:57:53.205Z,97710.94
2023-01-03T19:03:28.774Z,97700.59
2023-01-03T19:06:00.028Z,97692.00
2023-01-03T19:08:32.701Z,97710.13
2023-01-03T19:11:09.866Z,97694.47
2023-01-03T19:13:56.585Z,97704.66
2023-01-03T19:16:36.446Z,97688.91
2023-01-03T19:19:06.334Z,97697.94
2023-01-03T19:24:39.283Z,97700.72
2023-01-03T19:27:12.542Z,97690.66
2023-01-03T19:35:18.471Z,97673.53
2023-01-03T19:40:36.754Z,97700.81
2023-01-03T19:43:07.685Z,97682.94
2023-01-03T19:48:30.109Z,97692.78
2023-01-03T19:51:00.739Z,97694.06
2023-01-03T19:53:28.462Z,97677.28
2023-01-03T19:56:00.254Z,97678.69
2023-01-03T19:58:39.096Z,97683.00
2023-01-03T20:04:13.152Z,97696.66
2023-01-03T20:06:41.225Z,97688.72
2023-01-03T20:09:12.850Z,97690.41
2023-01-03T20:11:46.825Z,97685.81
2023-01-03T20:17:09.462Z,97679.34
2023-01-03T20:19:36.663Z,97690.72
2023-01-03T20:22:37.661Z,97695.72
2023-01-03T20:25:32.089Z,97686.34
2023-01-03T20:28:04.257Z,97687.22
2023-01-03T20:30:33.898Z,97700.28
2023-01-03T20:33:03.934Z,97695.00
2023-01-03T20:38:13.134Z,97715.00
2023-01-03T20:40:40.332Z,97707.69
2023-01-03T20:43:23.722Z,97719.13
2023-01-03T20:48:41.905Z,97714.31
2023-01-03T20:57:45.467Z,97730.25
2023-01-03T21:03:13.553Z,97710.75
2023-01-03T21:05:40.877Z,97705.88
2023-01-03T21:08:32.981Z,97706.69
2023-01-03T21:13:42.462Z,97725.06
2023-01-03T21:16:30.856Z,97729.78
2023-01-03T21:19:20.273Z,97714.53
2023-01-03T21:21:49.815Z,97725.72
2023-01-03T21:24:21.528Z,97743.06
2023-01-03T21:26:49.104Z,97706.34
2023-01-03T21:29:16.310Z,97730.59
2023-01-03T21:31:43.965Z,97742.03
2023-01-03T21:34:20.667Z,97742.44
2023-01-03T21:36:48.624Z,97736.94
2023-01-03T21:39:15.966Z,97731.44
2023-01-03T21:42:01.800Z,97742.66
2023-01-03T21:44:32.555Z,97757.53
2023-01-03T21:47:00.587Z,97730.03
2023-01-03T21:49:27.692Z,97759.78
2023-01-03T21:51:54.745Z,97754.88
2023-01-03T21:54:27.125Z,97755.72
2023-01-03T21:59:40.066Z,97761.84
2023-01-03T22:02:36.720Z,97755.50
2023-01-03T22:05:05.512Z,97764.69
2023-01-03T22:07:33.559Z,97750.41
2023-01-03T22:10:16.775Z,97753.25
2023-01-03T22:12:45.068Z,97764.03
2023-01-03T22:15:12.382Z,97760.16
2023-01-03T22:17:40.305Z,97779.47
2023-01-03T22:20:11.683Z,97770.72
2023-01-03T22:22:40.430Z,97771.53
2023-01-03T22:25:09.126Z,97775.03
2023-01-03T22:27:37.667Z,97775.00
2023-01-03T22:30:08.132Z,97779.69
2023-01-03T22:32:35.531Z,97769.69
2023-01-03T22:35:02.710Z,97753.78
2023-01-03T22:37:29.950Z,97770.69
2023-01-03T22:39:57.183Z,97771.50
2023-01-03T22:42:24.315Z,97773.13
2023-01-03T22:44:51.469Z,97778.84
2023-01-03T22:47:24.293Z,97778.25
2023-01-03T22:49:55.669Z,97798.16
2023-01-03T22:52:27.716Z,97782.06
2023-01-03T22:55:00.141Z,97779.22
2023-01-03T22:57:27.287Z,97791.44
2023-01-03T22:59:54.383Z,97792.91
2023-01-03T23:02:26.299Z,97814.09
2023-01-03T23:04:56.101Z,97811.22
2023-01-03T23:07:23.140Z,97801.66
2023-01-03T23:09:50.078Z,97803.69
2023-01-03T23:12:35.672Z,97806.72
2023-01-03T23:15:03.197Z,97809.38
2023-01-03T23:17:49.115Z,97808.16
2023-01-03T23:20:17.210Z,97806.72
2023-01-03T23:22:45.737Z,97805.72
2023-01-03T23:25:12.774Z,97823.25
2023-01-03T23:27:39.860Z,97810.00
2023-01-03T23:30:09.202Z,97828.91
2023-01-03T23:32:36.439Z,97826.47
2023-01-03T23:35:28.465Z,97828.72
2023-01-03T23:37:57.989Z,97830.56
2023-01-03T23:40:25.230Z,97835.63
2023-01-03T23:42:52.319Z,97836.25
2023-01-03T23:45:19.418Z,97842.78
2023-01-03T23:47:46.458Z,97839.94
2023-01-03T23:50:13.616Z,97840.53
2023-01-03T23:52:40.721Z,97839.72
2023-01-03T23:55:12.595Z,97846.03
2023-01-03T23:57:40.364Z,97840.34
